createdAt,value
2019-01-16T00:01:28.608Z,5.20
2019-01-16T00:04:28.605Z,5.10
2019-01-16T00:07:29.555Z,5.10
2019-01-16T00:10:27.851Z,5.10
2019-01-16T00:13:18.567Z,5.10
2019-01-16T00:16:19.098Z,5.10
2019-01-16T00:19:17.956Z,5.10
2019-01-16T00:22:10.649Z,5.10
2019-01-16T00:25:11.221Z,5.10
2019-01-16T00:28:03.730Z,5.10
2019-01-16T00:31:24.497Z,5.10
2019-01-16T00:34:25.329Z,5.10
2019-01-16T00:37:15.043Z,5.10
2019-01-16T00:40:05.891Z,5.10
2019-01-16T00:42:57.270Z,5.00
2019-01-16T00:45:57.861Z,5.10
2019-01-16T00:48:58.633Z,5.00
2019-01-16T00:51:58.720Z,5.00
2019-01-16T00:57:48.333Z,5.00
2019-01-16T01:00:49.237Z,5.00
2019-01-16T01:03:50.091Z,5.00
2019-01-16T01:06:50.782Z,5.00
2019-01-16T01:09:53.516Z,5.00
2019-01-16T01:12:53.533Z,5.00
2019-01-16T01:15:54.197Z,5.00
2019-01-16T01:18:49.801Z,5.00
2019-01-16T01:21:55.573Z,5.00
2019-01-16T01:24:58.798Z,5.00
2019-01-16T01:27:58.706Z,4.90
2019-01-16T01:30:59.493Z,5.00
2019-01-16T01:33:59.453Z,5.00
2019-01-16T01:37:00.309Z,5.00
2019-01-16T01:40:03.376Z,5.00
2019-01-16T01:42:51.788Z,5.00
2019-01-16T01:45:52.016Z,5.00
2019-01-16T01:48:52.017Z,5.00
2019-01-16T01:51:52.872Z,5.10
2019-01-16T01:54:46.300Z,5.00
2019-01-16T01:57:40.976Z,5.00
2019-01-16T02:00:41.256Z,5.00
2019-01-16T02:03:38.480Z,5.00
2019-01-16T02:06:38.714Z,5.00
2019-01-16T02:09:28.548Z,5.00
2019-01-16T02:12:28.500Z,5.00
2019-01-16T02:15:24.159Z,5.00
2019-01-16T02:18:17.007Z,5.00
2019-01-16T02:21:07.540Z,5.00
2019-01-16T02:24:15.194Z,5.00
2019-01-16T02:27:35.141Z,5.00
2019-01-16T02:30:35.250Z,5.00
2019-01-16T02:33:36.065Z,5.00
2019-01-16T02:36:36.698Z,5.00
2019-01-16T02:39:48.792Z,5.10
2019-01-16T02:42:49.037Z,5.10
2019-01-16T02:45:51.970Z,5.10
2019-01-16T02:48:56.027Z,5.10
2019-01-16T02:51:59.828Z,5.10
2019-01-16T02:55:00.465Z,5.20
2019-01-16T02:58:01.231Z,5.20
2019-01-16T03:00:56.427Z,5.20
2019-01-16T03:03:56.882Z,5.20
2019-01-16T03:06:57.642Z,5.20
2019-01-16T03:10:02.287Z,5.20
2019-01-16T03:13:02.621Z,5.20
2019-01-16T03:16:03.487Z,5.20
2019-01-16T03:19:04.942Z,5.20
2019-01-16T03:22:05.144Z,5.20
2019-01-16T03:25:00.751Z,5.20
2019-01-16T03:28:01.228Z,5.20
2019-01-16T03:31:13.513Z,5.20
2019-01-16T03:34:14.080Z,5.20
2019-01-16T03:37:14.156Z,5.20
2019-01-16T03:40:14.835Z,5.20
2019-01-16T03:43:14.905Z,5.20
2019-01-16T03:46:18.144Z,5.20
2019-01-16T03:49:18.853Z,5.20
2019-01-16T03:52:19.431Z,5.20
2019-01-16T03:55:20.217Z,5.20
2019-01-16T03:58:20.315Z,5.20
2019-01-16T04:01:20.292Z,5.20
2019-01-16T04:04:20.969Z,5.20
2019-01-16T04:07:19.472Z,5.20
2019-01-16T04:10:19.563Z,5.20
2019-01-16T04:13:20.255Z,5.20
2019-01-16T04:19:39.950Z,5.20
2019-01-16T04:22:40.366Z,5.10
2019-01-16T04:25:40.381Z,5.20
2019-01-16T04:28:40.530Z,5.20
2019-01-16T04:31:33.056Z,5.20
2019-01-16T04:34:22.968Z,5.20
2019-01-16T04:37:23.809Z,5.10
2019-01-16T04:40:24.494Z,5.10
2019-01-16T04:43:25.346Z,5.10
2019-01-16T04:46:26.101Z,5.10
2019-01-16T04:49:30.525Z,5.10
2019-01-16T04:52:28.663Z,5.10
2019-01-16T04:55:29.162Z,5.10
2019-01-16T04:58:25.747Z,5.10
2019-01-16T05:01:25.743Z,5.10
2019-01-16T05:04:26.499Z,5.10
2019-01-16T05:07:25.872Z,5.10
2019-01-16T05:10:26.504Z,5.00
2019-01-16T05:13:32.660Z,5.00
2019-01-16T05:16:33.290Z,5.00
2019-01-16T05:19:38.681Z,5.00
2019-01-16T05:22:59.388Z,5.00
2019-01-16T05:26:00.295Z,5.00
2019-01-16T05:28:56.652Z,5.00
2019-01-16T05:31:57.160Z,5.00
2019-01-16T05:35:03.557Z,5.10
2019-01-16T05:38:04.302Z,5.10
2019-01-16T05:40:58.468Z,5.00
2019-01-16T05:43:49.827Z,5.00
2019-01-16T05:47:19.055Z,5.00
2019-01-16T05:50:25.930Z,5.00
2019-01-16T05:53:26.706Z,5.00
2019-01-16T05:56:26.759Z,5.00
2019-01-16T05:59:14.773Z,5.00
2019-01-16T06:02:16.882Z,5.00
2019-01-16T06:08:30.087Z,5.00
2019-01-16T06:11:18.708Z,5.00
2019-01-16T06:14:26.437Z,5.00
2019-01-16T06:17:27.147Z,5.00
2019-01-16T06:20:19.443Z,5.00
2019-01-16T06:23:10.695Z,5.00
2019-01-16T06:25:50.495Z,4.90
2019-01-16T06:28:32.163Z,4.90
2019-01-16T06:31:15.800Z,4.90
2019-01-16T06:34:04.329Z,4.90
2019-01-16T06:36:59.128Z,4.90
2019-01-16T06:39:46.355Z,4.90
2019-01-16T06:42:24.936Z,4.90
2019-01-16T06:45:10.403Z,4.90
2019-01-16T06:47:57.675Z,4.90
2019-01-16T06:50:53.132Z,4.90
2019-01-16T06:53:39.211Z,4.90
2019-01-16T06:56:28.106Z,4.80
2019-01-16T06:59:13.587Z,4.80
2019-01-16T07:02:00.669Z,4.80
2019-01-16T07:04:49.299Z,4.80
2019-01-16T07:07:40.992Z,4.80
2019-01-16T07:10:30.056Z,4.80
2019-01-16T07:13:08.901Z,4.80
2019-01-16T07:16:09.725Z,4.80
2019-01-16T07:19:04.096Z,4.80
2019-01-16T07:21:51.091Z,4.80
2019-01-16T07:24:38.155Z,4.80
2019-01-16T07:27:29.681Z,4.80
2019-01-16T07:30:08.497Z,4.70
2019-01-16T07:32:54.236Z,4.70
2019-01-16T07:35:45.649Z,4.80
2019-01-16T07:38:27.775Z,4.70
2019-01-16T07:41:24.396Z,4.70
2019-01-16T07:44:11.638Z,4.70
2019-01-16T07:47:06.137Z,4.70
2019-01-16T07:49:54.763Z,4.70
2019-01-16T07:52:46.280Z,4.70
2019-01-16T07:55:33.412Z,4.70
2019-01-16T07:58:08.452Z,4.70
2019-01-16T08:00:57.102Z,4.70
2019-01-16T08:03:44.112Z,4.70
2019-01-16T08:06:26.247Z,4.60
2019-01-16T08:09:20.617Z,4.60
2019-01-16T08:12:07.973Z,4.60
2019-01-16T08:15:02.363Z,4.60
2019-01-16T08:17:49.657Z,4.60
2019-01-16T08:20:41.860Z,4.60
2019-01-16T08:23:39.290Z,4.60
2019-01-16T08:26:26.296Z,4.60
2019-01-16T08:29:14.325Z,4.60
2019-01-16T08:32:02.924Z,4.60
2019-01-16T08:34:49.997Z,4.60
2019-01-16T08:37:36.980Z,4.60
2019-01-16T08:40:35.749Z,4.50
2019-01-16T08:43:36.337Z,4.50
2019-01-16T08:46:27.170Z,4.50
2019-01-16T08:49:18.052Z,4.50
2019-01-16T08:52:07.564Z,4.50
2019-01-16T08:54:50.388Z,4.50
2019-01-16T08:57:57.203Z,4.50
2019-01-16T09:00:34.393Z,4.50
2019-01-16T09:03:28.812Z,4.50
2019-01-16T09:06:26.326Z,4.50
2019-01-16T09:09:33.254Z,4.50
2019-01-16T09:12:23.043Z,4.50
2019-01-16T09:15:17.300Z,4.50
2019-01-16T09:18:00.328Z,4.50
2019-01-16T09:20:57.916Z,4.50
2019-01-16T09:23:49.575Z,4.50
2019-01-16T09:26:53.153Z,4.50
2019-01-16T09:29:36.013Z,4.50
2019-01-16T09:32:36.576Z,4.50
2019-01-16T09:35:25.460Z,4.60
2019-01-16T09:38:14.113Z,4.60
2019-01-16T09:41:01.343Z,4.60
2019-01-16T09:43:44.821Z,4.60
2019-01-16T09:46:33.427Z,4.60
2019-01-16T09:49:13.309Z,4.70
2019-01-16T09:51:54.832Z,4.50
2019-01-16T09:54:58.742Z,4.70
2019-01-16T09:57:45.813Z,4.70
2019-01-16T10:00:30.738Z,4.70
2019-01-16T10:03:18.049Z,4.70
2019-01-16T10:06:09.716Z,4.70
2019-01-16T10:08:56.807Z,4.70
2019-01-16T10:11:45.441Z,4.70
2019-01-16T10:14:32.409Z,4.70
2019-01-16T10:17:19.499Z,4.70
2019-01-16T10:20:11.915Z,4.70
2019-01-16T10:22:58.947Z,4.70
2019-01-16T10:25:46.641Z,4.70
2019-01-16T10:28:30.683Z,4.70
2019-01-16T10:31:25.339Z,4.70
2019-01-16T10:34:20.013Z,4.80
2019-01-16T10:37:01.260Z,4.80
2019-01-16T10:40:04.802Z,4.80
2019-01-16T10:42:51.100Z,4.80
2019-01-16T10:45:43.016Z,4.80
2019-01-16T10:50:29.203Z,4.80
2019-01-16T10:53:16.935Z,4.90
2019-01-16T10:56:08.365Z,5.00
2019-01-16T10:58:54.272Z,5.00
2019-01-16T11:01:41.524Z,5.00
2019-01-16T11:04:33.375Z,5.10
2019-01-16T11:07:23.428Z,5.10
2019-01-16T11:10:10.453Z,5.10
2019-01-16T11:12:58.892Z,5.10
2019-01-16T11:15:54.061Z,5.10
2019-01-16T11:18:41.623Z,5.10
2019-01-16T11:21:29.132Z,5.20
2019-01-16T11:24:24.145Z,5.20
2019-01-16T11:27:24.984Z,5.20
2019-01-16T11:30:14.114Z,5.20
2019-01-16T11:32:52.554Z,5.20
2019-01-16T11:35:39.142Z,5.20
2019-01-16T11:38:21.019Z,5.20
2019-01-16T11:41:11.105Z,5.30
2019-01-16T11:44:06.416Z,5.30
2019-01-16T11:47:07.783Z,5.30
2019-01-16T11:49:56.927Z,5.40
2019-01-16T11:52:54.738Z,5.40
2019-01-16T11:55:42.297Z,5.40
2019-01-16T11:58:21.832Z,5.40
2019-01-16T12:01:14.804Z,5.40
2019-01-16T12:04:02.519Z,5.40
2019-01-16T12:06:51.724Z,5.40
2019-01-16T12:09:39.487Z,5.40
2019-01-16T12:12:33.554Z,5.30
2019-01-16T12:15:22.001Z,5.30
2019-01-16T12:18:09.633Z,5.30
2019-01-16T12:20:49.771Z,5.30
2019-01-16T12:23:48.114Z,5.30
2019-01-16T12:26:39.984Z,5.40
2019-01-16T12:29:30.776Z,5.40
2019-01-16T12:32:19.901Z,5.40
2019-01-16T12:35:07.388Z,5.50
2019-01-16T12:38:02.429Z,5.50
2019-01-16T12:40:50.408Z,5.60
2019-01-16T12:43:37.913Z,5.60
2019-01-16T12:46:25.403Z,5.70
2019-01-16T12:49:07.139Z,5.70
2019-01-16T12:52:02.402Z,5.70
2019-01-16T12:54:50.112Z,5.70
2019-01-16T12:57:44.995Z,5.70
2019-01-16T13:00:24.454Z,5.70
2019-01-16T13:03:12.060Z,5.80
2019-01-16T13:05:50.413Z,5.80
2019-01-16T13:08:45.411Z,5.70
2019-01-16T13:11:29.176Z,5.70
2019-01-16T13:14:23.324Z,5.70
2019-01-16T13:17:10.872Z,5.70
2019-01-16T13:19:58.841Z,5.70
2019-01-16T13:23:02.787Z,5.70
2019-01-16T13:25:52.813Z,5.70
2019-01-16T13:28:40.332Z,5.70
2019-01-16T13:31:23.634Z,6.40
2019-01-16T13:34:20.463Z,5.70
2019-01-16T13:37:08.327Z,5.80
2019-01-16T13:40:09.744Z,5.90
2019-01-16T13:42:49.165Z,5.90
2019-01-16T13:45:44.179Z,5.90
2019-01-16T13:48:39.246Z,6.00
2019-01-16T13:51:26.819Z,6.00
2019-01-16T13:54:15.916Z,5.90
2019-01-16T13:57:07.725Z,5.90
2019-01-16T13:59:59.588Z,5.80
2019-01-16T14:02:36.925Z,5.80
2019-01-16T14:05:15.473Z,5.70
2019-01-16T14:08:02.532Z,5.70
2019-01-16T14:10:57.639Z,5.70
2019-01-16T14:13:45.510Z,5.70
2019-01-16T14:16:32.995Z,5.70
2019-01-16T14:19:13.254Z,5.70
2019-01-16T14:22:05.267Z,5.70
2019-01-16T14:24:54.412Z,5.70
2019-01-16T14:27:38.461Z,5.70
2019-01-16T14:30:29.964Z,5.70
2019-01-16T14:33:25.076Z,5.70
2019-01-16T14:36:14.158Z,5.70
2019-01-16T14:38:56.168Z,5.70
2019-01-16T14:41:43.888Z,5.70
2019-01-16T14:44:36.988Z,5.70
2019-01-16T14:47:24.879Z,5.70
2019-01-16T14:50:16.793Z,5.60
2019-01-16T14:52:59.532Z,5.70
2019-01-16T14:55:51.347Z,5.60
2019-01-16T14:58:45.540Z,5.60
2019-01-16T15:01:40.364Z,5.60
2019-01-16T15:04:22.189Z,5.50
2019-01-16T15:07:11.289Z,5.50
2019-01-16T15:09:59.068Z,5.50
2019-01-16T15:12:57.146Z,5.50
2019-01-16T15:15:38.132Z,5.50
2019-01-16T15:18:42.387Z,5.50
2019-01-16T15:21:23.394Z,5.50
2019-01-16T15:24:07.030Z,5.50
2019-01-16T15:26:54.552Z,5.50
2019-01-16T15:29:43.683Z,5.40
2019-01-16T15:32:29.465Z,5.40
2019-01-16T15:35:17.937Z,5.40
2019-01-16T15:38:04.469Z,5.40
2019-01-16T15:40:53.595Z,5.30
2019-01-16T15:43:41.200Z,5.30
2019-01-16T15:46:18.772Z,5.30
2019-01-16T15:49:09.262Z,5.30
2019-01-16T15:51:57.129Z,5.30
2019-01-16T15:54:55.290Z,5.20
2019-01-16T15:57:41.084Z,5.20
2019-01-16T16:00:31.686Z,5.20
2019-01-16T16:03:19.548Z,5.20
2019-01-16T16:06:08.673Z,5.20
2019-01-16T16:08:51.533Z,5.10
2019-01-16T16:11:36.443Z,5.10
2019-01-16T16:14:18.531Z,5.10
2019-01-16T16:17:13.799Z,5.10
2019-01-16T16:20:01.255Z,5.10
2019-01-16T16:23:02.211Z,5.00
2019-01-16T16:26:00.530Z,5.10
2019-01-16T16:28:49.629Z,5.00
2019-01-16T16:31:29.427Z,5.00
2019-01-16T16:34:17.331Z,5.00
2019-01-16T16:37:04.967Z,5.00
2019-01-16T16:40:03.073Z,4.90
2019-01-16T16:42:54.403Z,4.90
2019-01-16T16:45:42.925Z,4.90
2019-01-16T16:48:32.087Z,4.90
2019-01-16T16:51:27.927Z,4.80
2019-01-16T16:54:35.687Z,4.80
2019-01-16T16:57:23.308Z,4.80
2019-01-16T17:00:15.371Z,4.80
2019-01-16T17:03:03.333Z,4.80
2019-01-16T17:05:58.522Z,4.70
2019-01-16T17:08:40.908Z,4.70
2019-01-16T17:11:42.251Z,4.70
2019-01-16T17:14:46.598Z,4.60
2019-01-16T17:17:27.658Z,4.60
2019-01-16T17:20:06.615Z,4.50
2019-01-16T17:22:55.718Z,4.50
2019-01-16T17:25:34.871Z,4.40
2019-01-16T17:28:35.573Z,4.30
2019-01-16T17:31:25.544Z,4.40
2019-01-16T17:34:05.163Z,4.40
2019-01-16T17:36:48.897Z,4.40
2019-01-16T17:39:44.190Z,4.40
2019-01-16T17:42:33.417Z,4.40
2019-01-16T17:45:23.439Z,4.50
2019-01-16T17:48:15.619Z,4.50
2019-01-16T17:50:58.488Z,4.50
2019-01-16T17:53:47.899Z,4.50
2019-01-16T17:56:42.908Z,4.40
2019-01-16T17:59:42.095Z,4.40
2019-01-16T18:02:29.657Z,4.40
2019-01-16T18:05:06.524Z,4.40
2019-01-16T18:07:54.543Z,4.30
2019-01-16T18:10:42.169Z,4.30
2019-01-16T18:13:31.661Z,4.30
2019-01-16T18:16:12.047Z,4.30
2019-01-16T18:19:13.235Z,4.30
2019-01-16T18:21:58.219Z,4.30
2019-01-16T18:24:37.711Z,4.40
2019-01-16T18:27:30.103Z,4.40
2019-01-16T18:30:21.669Z,4.40
2019-01-16T18:33:10.896Z,4.40
2019-01-16T18:36:04.959Z,4.40
2019-01-16T18:38:46.537Z,4.40
2019-01-16T18:41:27.415Z,4.50
2019-01-16T18:44:22.615Z,4.40
2019-01-16T18:47:21.056Z,4.40
2019-01-16T18:50:15.703Z,4.50
2019-01-16T18:53:00.184Z,4.50
2019-01-16T18:55:47.952Z,4.50
2019-01-16T18:58:30.297Z,4.50
2019-01-16T19:01:22.301Z,4.50
2019-01-16T19:04:11.504Z,4.50
2019-01-16T19:07:03.882Z,4.50
2019-01-16T19:09:54.282Z,4.50
2019-01-16T19:12:55.691Z,4.50
2019-01-16T19:15:43.447Z,4.50
2019-01-16T19:18:31.132Z,4.40
2019-01-16T19:21:18.624Z,4.50
2019-01-16T19:24:06.193Z,4.50
2019-01-16T19:26:53.821Z,4.50
2019-01-16T19:29:39.368Z,4.50
2019-01-16T19:32:37.960Z,4.50
2019-01-16T19:35:19.478Z,4.50
2019-01-16T19:38:07.937Z,4.50
2019-01-16T19:40:55.507Z,4.50
2019-01-16T19:43:39.088Z,4.50
2019-01-16T19:46:37.443Z,4.50
2019-01-16T19:49:26.078Z,4.50
2019-01-16T19:52:15.269Z,4.50
2019-01-16T19:55:10.393Z,4.50
2019-01-16T19:58:02.576Z,4.50
2019-01-16T20:00:50.346Z,4.50
2019-01-16T20:03:37.973Z,4.50
2019-01-16T20:06:25.765Z,4.50
2019-01-16T20:09:11.684Z,4.50
2019-01-16T20:11:52.590Z,4.50
2019-01-16T20:14:59.884Z,4.60
2019-01-16T20:17:54.844Z,4.50
2019-01-16T20:20:49.890Z,4.60
2019-01-16T20:23:39.179Z,4.60
2019-01-16T20:26:40.377Z,4.60
2019-01-16T20:29:24.137Z,4.60
2019-01-16T20:32:05.055Z,4.60
2019-01-16T20:34:52.596Z,4.60
2019-01-16T20:37:40.391Z,4.70
2019-01-16T20:40:23.920Z,4.70
2019-01-16T20:43:11.540Z,4.70
2019-01-16T20:46:03.938Z,4.70
2019-01-16T20:48:46.118Z,4.70
2019-01-16T20:51:33.624Z,4.70
2019-01-16T20:54:25.609Z,4.70
2019-01-16T20:57:13.565Z,4.70
2019-01-16T21:00:04.479Z,4.80
2019-01-16T21:03:02.615Z,4.80
2019-01-16T21:05:43.665Z,4.80
2019-01-16T21:08:32.871Z,4.80
2019-01-16T21:11:33.829Z,4.90
2019-01-16T21:14:25.895Z,4.90
2019-01-16T21:17:23.805Z,4.90
2019-01-16T21:20:01.728Z,4.90
2019-01-16T21:22:43.248Z,4.90
2019-01-16T21:25:33.077Z,4.90
2019-01-16T21:28:20.913Z,4.90
2019-01-16T21:31:15.781Z,4.90
2019-01-16T21:34:04.911Z,4.90
2019-01-16T21:37:12.240Z,4.90
2019-01-16T21:40:13.393Z,4.90
2019-01-16T21:43:00.988Z,4.90
2019-01-16T21:45:46.389Z,5.00
2019-01-16T21:48:47.784Z,5.00
2019-01-16T21:51:35.452Z,5.00
2019-01-16T21:54:23.840Z,5.00
2019-01-16T21:57:07.988Z,5.00
2019-01-16T21:59:55.819Z,5.00
2019-01-16T22:02:41.704Z,5.00
2019-01-16T22:05:30.769Z,5.00
2019-01-16T22:08:29.291Z,5.00
2019-01-16T22:11:10.549Z,5.00
2019-01-16T22:13:47.860Z,5.00
2019-01-16T22:16:29.487Z,5.00
2019-01-16T22:19:36.804Z,5.10
2019-01-16T22:22:19.735Z,5.00
2019-01-16T22:25:11.964Z,5.00
2019-01-16T22:28:01.061Z,5.10
2019-01-16T22:30:44.069Z,5.10
2019-01-16T22:33:23.592Z,5.00
2019-01-16T22:36:07.441Z,5.00
2019-01-16T22:39:08.735Z,5.00
2019-01-16T22:41:55.575Z,5.00
2019-01-16T22:44:47.777Z,5.00
2019-01-16T22:47:29.873Z,5.00
2019-01-16T22:50:20.256Z,5.00
2019-01-16T22:53:08.080Z,5.00
2019-01-16T22:55:46.577Z,5.00
2019-01-16T22:58:31.633Z,5.00
2019-01-16T23:01:15.460Z,5.00
2019-01-16T23:04:03.046Z,5.00
2019-01-16T23:07:01.959Z,5.00
2019-01-16T23:09:43.484Z,4.90
2019-01-16T23:12:41.557Z,4.80
2019-01-16T23:15:33.875Z,4.80
2019-01-16T23:18:18.895Z,4.70
2019-01-16T23:21:14.354Z,4.70
2019-01-16T23:24:01.967Z,4.60
2019-01-16T23:26:45.314Z,4.60
2019-01-16T23:29:30.897Z,4.50
2019-01-16T23:32:39.116Z,4.50
2019-01-16T23:35:33.585Z,4.50
2019-01-16T23:38:57.151Z,4.40
2019-01-16T23:41:53.919Z,4.40
2019-01-16T23:44:54.648Z,4.40
2019-01-16T23:48:02.897Z,4.40
2019-01-16T23:51:04.114Z,4.40
2019-01-16T23:57:17.457Z,4.40
